LXGB Airport Information

Runway Information
Runway 09 Length 6000 ft width 150 ft
Elevation 10 ft Threshold 302 ft Heading 88
Runway 27 Length 6000 ft Width 150 ft
Elevation 11 ft Threshold 368 ft Heading 268
Airport Frequencies
Type A/D Name APP Frequency 122.8 MHZ
Type OPS Name GIB TALKDO Frequency 130.4 MHZ
Type TWR Name TWR Frequency 131.2 MHZ
Airport Navaids
Type TACAN Name Gibraltar Frequency 113600 KHZ
Airport Weather Information & NOTAM
ADDS - METARS form results

(0336 UTC 12 January 2023)
Data provider http://aviationweather.gov/metar/data/
 
METAR text: LXGB 120320Z AUTO 24005KT 9999 NCD 14/10 Q1027
Conditions at: LXGB (GIBRALTAR (CIV/M, GI) observed 0320 UTC 12 January 2023
Temperature: 14.0°C (57°F)
Dewpoint: 10.0°C (50°F) [RH = 77%]
Pressure (altimeter): 30.32 inches Hg (1027.0 mb)
Winds: from the WSW (240 degrees) at 6 MPH (5 knots; 2.6 m/s)
Visibility: 6 or more miles (10+ km)
Ceiling: at least 12,000 feet AGL
Clouds: sky clear below 12,000 feet AGL
Weather: no significant weather observed at this time

METAR text: LXGB 120250Z AUTO 24005KT 9999 NCD 14/10 Q1027
Conditions at: LXGB (GIBRALTAR (CIV/M, GI) observed 0250 UTC 12 January 2023
Temperature: 14.0°C (57°F)
Dewpoint: 10.0°C (50°F) [RH = 77%]
Pressure (altimeter): 30.32 inches Hg (1027.0 mb)
Winds: from the WSW (240 degrees) at 6 MPH (5 knots; 2.6 m/s)
Visibility: 6 or more miles (10+ km)
Ceiling: at least 12,000 feet AGL
Clouds: sky clear below 12,000 feet AGL
Weather: no significant weather observed at this time

Forecast for: LXGB (GIBRALTAR (CIV/M, GI)
Text: TAF LXGB 111632Z 1118/1123 28012KT 9999 FEW030
Forecast period: 1800 to 2300 UTC 11 January 2023
Forecast type: FROM: standard forecast or significant change
Winds: from the W (280 degrees) at 14 MPH (12 knots; 6.2 m/s)
Visibility: 6 or more miles (10+ km)
Ceiling: at least 12,000 feet AGL
Clouds: few clouds at 3000 feet AGL
Weather: no significant weather forecast for this period